Startpagina
METAR-TAF:

METAR-TAF

Vliegvelden :

Orange, Frankrijk

breedte: 44-08N, lengte: 004-50E, hoogte: 60 m

Actueel weer

Dit bericht is 27 minuten geleden gemaakt, om 03:00 UTC
Wind 3 kt uit variabele richting
Temperatuur 9°C
Vochtigheid 81%
Druk 1023 hPa
Zicht 10 km of meer
Geheel bewolkt op 5200 ft

METAR: LFMO 240300Z AUTO VRB03KT 9999 OVC052 09/06 Q1023 TEMPO 4000 SHRA BKN035TCU

Tijdstip: 04:27 (03:27 UTC)

Verwachting

Dit bericht is 1 uur en het 27 minuten geleden gemaakt, om 02:00 UTC
Verwachting geldig van 24 om 03 UTC tot 25 om 03 UTC
Wind 4 kt uit het zuidoosten
Zicht 10 km of meer
Geheel bewolkt op 5000 ft
Tijdelijke
van 24 om 04 UTC tot 24 om 23 UTC
Zicht: 4000 m
Gebroken wolken op 3500 ft, Stapelwolken.
regenbuien

TAF: LFMO 240200Z 2403/2503 13004KT 9999 OVC050 TEMPO 2404/2423 4000 SHRA BKN035TCU

Waarnemingen en weersverwachtingen van meer dan 4000 vliegvelden (METAR en TAF).

De beschikbare stations zijn de gele en rode punten op de kaart.

Ga met uw muis naar het station om de naam te zien.

Klik dan om waarnemingen en weersverwachtingen te zien.

kaart wijzigen: klik op de groene knoppen met een zwart kruis om in te zoomen, op de groene knop met een streepje om uit te zoomen of op de groene pijlen voor aangrenzende kaarten.


METAR-TAF: